Terminal Aerodrome Forecast
Issued by NWS

Home | Current Version | Previous Version | Text Only | Print | Product List | Glossary On
Versions: 1 2 3 4 5 6 7 8 9 10 11 12 13 14 15
000
FTUS43 KJKL 251700
TAFSJS
TAF
KSJS 251734Z 2518/2618 18008KT P6SM OVC100
     FM260100 18009KT 6SM -RA BKN030 OVC100
     FM260700 20009KT 3SM RA OVC010
     FM261100 30009G18KT 2SM -SHSN OVC004=

USA.gov is the U.S. government's official web portal to all federal, state and local government web resources and services.